Aeroporto :
LOGIN :

Iscrizione | Disclaimer

   EN    FR    IT 

 










Sommario :    VFR   VFR Marginale   IFR   IFR Intensivo   IFR Molto Intensivo
Visibilità : 
Base nubi : 
>= 8 km
>= 3000ft
5 / 8 km
1000 / 3000 ft
1500m / 5 km
500 / 1000 ft
800 / 1500m
200 / 500 ft
< 800m
< 200 ft
Simboli :   Temporali  Nebbia  Neve Forte  Precipitazioni Forti  Vento > 20 kt
SIGMETs :   Varie  Temporali  Ghiacco  Turbolenza  Onda orograficha  Ceneri Vulcaniche






- Altitudine del aeroporto : 614 ft
- Codice IATA : CRL


EBCI - Charleroi

ULTIMO METAR :
  • 231320Z 08006KT 040V120 CAVOK 17/12 Q1011 NOSIG

METARs OBSOLETI :
  • 231250Z 10005KT 060V150 7000 NSC 17/12 Q1012 NOSIG
  • 231220Z 10006KT 050V210 7000 NSC 16/11 Q1012 NOSIG
  • 231150Z 09008KT 050V120 7000 NSC 15/11 Q1013 NOSIG
  • 231120Z 09008KT 070V150 7000 NSC 14/11 Q1013 NOSIG
  • 231050Z 07008KT 7000 NSC 13/10 Q1013 NOSIG

TAF TAF EBCI
Valido dal 23 a 12 ore il 24 a 18 ore UTC


231120Z 2312/2418 10006KT 9000 NSC
BECMG 2408/2410 16010KT
BECMG 2416/2418 22014KT



MetMap, La meteo Aeronautica in un colpo d'occhio ! - Copyright ORBIFLY Dicembre 2007 - Disclaimer

ORBIFLY MET'MAP TEAM :

Programmazione e sviluppo : Alexandra Zaïnal
Concezione e sviluppo : Baudouin d'Aumeries
Co-Programmazione e sviluppo : Marc-Olivier Méhu
Supporto tecnico e logistico : Manuel Goepfert
Aiuto per la traduzione : Arnaldo La Scala

Contatto : metmap@orbifly.com




FONTI E CREDITI :

   NOAA